Time;durP1;ratioP1;P1;durP2;ratioP2;P2;SDS_P1;SDS_P2;PMS_P1;PMS_P2;Temp;Humidity;BMP_temperature;BMP_pressure;BME280_temperature;BME280_humidity;BME280_pressure;Samples;Min_cycle;Max_cycle;Signal;HPM_P1;HPM_P2
2020/12/23 00:00:15;;;;;;;163.07;88.90;;;17.50;60.80;;;;;;5014553;28;20030;-60
2020/12/23 00:02:42;;;;;;;155.00;86.32;;;17.50;61.40;;;;;;5014682;28;20034;-60
2020/12/23 00:05:10;;;;;;;149.32;84.07;;;17.40;61.40;;;;;;5015082;28;20026;-60
2020/12/23 00:07:36;;;;;;;151.07;82.93;;;17.50;61.60;;;;;;5014708;28;20454;-59
2020/12/23 00:10:05;;;;;;;157.63;85.28;;;17.40;61.60;;;;;;5014214;28;20033;-59
2020/12/23 00:12:35;;;;;;;140.55;79.13;;;17.40;61.80;;;;;;5014598;28;20356;-59
2020/12/23 00:15:02;;;;;;;145.68;81.88;;;17.40;62.00;;;;;;5014369;28;20033;-59
2020/12/23 00:17:27;;;;;;;137.35;75.68;;;17.40;62.00;;;;;;5014852;28;20029;-60
2020/12/23 00:19:53;;;;;;;148.25;80.05;;;17.40;62.30;;;;;;5014091;28;20042;-60
2020/12/23 00:22:19;;;;;;;138.30;76.70;;;17.30;62.30;;;;;;5014354;28;20042;-59
2020/12/23 00:24:44;;;;;;;135.85;74.93;;;17.30;62.30;;;;;;5014343;28;20037;-60
2020/12/23 00:27:10;;;;;;;134.80;74.80;;;17.30;62.40;;;;;;5014014;28;20030;-60
2020/12/23 00:29:36;;;;;;;138.00;77.47;;;17.20;62.30;;;;;;5015054;28;20028;-59
2020/12/23 00:32:03;;;;;;;137.00;76.95;;;17.30;62.50;;;;;;5014299;28;20036;-59
2020/12/23 00:34:28;;;;;;;137.52;72.22;;;17.20;63.40;;;;;;5014155;28;20382;-59
2020/12/23 00:36:55;;;;;;;135.05;71.78;;;17.20;62.70;;;;;;5014199;28;20030;-60
2020/12/23 00:39:21;;;;;;;126.22;70.55;;;17.30;62.40;;;;;;5013782;28;20468;-60
2020/12/23 00:41:47;;;;;;;131.18;70.25;;;17.20;62.30;;;;;;5014148;28;20109;-60
2020/12/23 00:44:13;;;;;;;130.88;69.88;;;17.30;62.10;;;;;;5014150;28;20026;-60
2020/12/23 00:46:39;;;;;;;125.13;70.03;;;17.30;62.20;;;;;;5014126;28;20026;-60
2020/12/23 00:49:05;;;;;;;122.57;66.28;;;17.30;62.20;;;;;;5014052;28;20029;-60
2020/12/23 00:51:30;;;;;;;126.40;66.20;;;17.30;61.70;;;;;;5014135;28;20426;-60
2020/12/23 00:53:56;;;;;;;119.53;65.65;;;17.30;61.40;;;;;;5013960;28;20029;-60
2020/12/23 00:56:22;;;;;;;128.10;66.32;;;17.30;61.50;;;;;;5013961;28;20088;-60
2020/12/23 00:58:48;;;;;;;115.53;62.65;;;17.20;61.40;;;;;;5014321;28;20475;-60
2020/12/23 01:01:13;;;;;;;116.55;63.22;;;17.20;61.70;;;;;;5013736;28;20026;-60
2020/12/23 01:03:39;;;;;;;119.72;64.50;;;17.10;61.50;;;;;;5013870;28;20034;-60
2020/12/23 01:06:12;;;;;;;106.65;58.75;;;17.10;61.90;;;;;;5013917;28;20030;-59
2020/12/23 01:08:38;;;;;;;111.57;60.90;;;17.10;62.40;;;;;;5017120;28;20029;-59
2020/12/23 01:11:08;;;;;;;108.15;62.00;;;17.00;62.30;;;;;;5017976;28;20022;-59
2020/12/23 01:13:34;;;;;;;112.32;58.90;;;17.00;62.30;;;;;;5017798;28;20459;-59
2020/12/23 01:16:00;;;;;;;104.57;56.90;;;17.00;62.50;;;;;;5017844;28;20025;-59
2020/12/23 01:18:26;;;;;;;102.82;58.95;;;17.00;62.60;;;;;;5017840;28;20034;-60
2020/12/23 01:20:51;;;;;;;99.22;56.10;;;17.00;62.70;;;;;;5017812;28;20026;-59
2020/12/23 01:23:17;;;;;;;107.03;59.40;;;16.90;62.80;;;;;;5017394;28;20093;-60
2020/12/23 01:25:42;;;;;;;109.32;59.05;;;16.90;62.80;;;;;;5017767;28;20022;-60
2020/12/23 01:28:08;;;;;;;107.97;55.03;;;16.90;62.80;;;;;;4999982;28;20025;-59
2020/12/23 01:30:34;;;;;;;102.03;55.35;;;16.90;62.80;;;;;;5017344;28;20052;-60
2020/12/23 01:32:59;;;;;;;93.18;53.95;;;16.90;62.80;;;;;;5017524;28;20037;-59
2020/12/23 01:35:25;;;;;;;96.18;52.33;;;16.90;62.50;;;;;;5017536;28;20377;-59
2020/12/23 01:37:50;;;;;;;101.97;55.22;;;16.90;62.70;;;;;;5017172;28;20030;-59
2020/12/23 01:40:16;;;;;;;95.00;53.95;;;17.00;62.50;;;;;;5017216;28;20033;-59
2020/12/23 01:42:41;;;;;;;92.85;51.75;;;17.00;62.60;;;;;;5017307;28;20129;-59
2020/12/23 01:45:07;;;;;;;92.97;51.65;;;17.00;62.50;;;;;;5017378;28;20017;-60
2020/12/23 01:47:35;;;;;;;91.05;51.08;;;17.00;62.30;;;;;;5017281;28;20458;-59
2020/12/23 01:50:01;;;;;;;92.85;53.10;;;17.10;62.10;;;;;;5017050;28;20069;-59
2020/12/23 01:52:27;;;;;;;93.60;52.28;;;17.10;61.80;;;;;;5017178;28;20064;-59
2020/12/23 01:54:54;;;;;;;94.30;50.40;;;17.10;61.70;;;;;;5017208;28;20398;-60
2020/12/23 01:57:20;;;;;;;91.22;48.30;;;17.10;61.70;;;;;;5017124;28;20061;-60
2020/12/23 01:59:47;;;;;;;83.97;47.30;;;17.10;61.60;;;;;;5016975;28;20069;-59
2020/12/23 02:02:28;;;;;;;90.18;49.17;;;17.20;61.60;;;;;;5016925;28;20030;-60
2020/12/23 02:04:54;;;;;;;;;;;17.30;61.40;;;;;;5017425;28;20026;-60
2020/12/23 02:07:20;;;;;;;84.15;44.92;;;17.40;61.20;;;;;;5017249;28;19909;-60
2020/12/23 02:09:48;;;;;;;80.68;44.85;;;17.50;61.00;;;;;;5017171;28;20034;-59
2020/12/23 02:12:16;;;;;;;81.18;46.63;;;17.50;60.70;;;;;;5016736;28;20112;-60
2020/12/23 02:14:42;;;;;;;81.38;43.20;;;17.50;60.50;;;;;;5016864;28;20061;-59
2020/12/23 02:17:08;;;;;;;74.75;41.97;;;17.60;60.50;;;;;;5016450;28;20061;-60
2020/12/23 02:19:34;;;;;;;78.40;42.25;;;17.70;60.40;;;;;;5015794;28;20045;-59
2020/12/23 02:22:01;;;;;;;72.05;41.95;;;17.60;60.40;;;;;;5016706;28;20049;-60
2020/12/23 02:24:28;;;;;;;73.95;41.20;;;17.60;60.30;;;;;;5016437;28;20425;-60
2020/12/23 02:26:54;;;;;;;76.72;41.38;;;17.60;60.40;;;;;;5016509;28;20034;-59
2020/12/23 02:29:20;;;;;;;74.78;41.20;;;17.60;60.40;;;;;;5016682;28;20038;-59
2020/12/23 02:31:46;;;;;;;79.18;42.50;;;17.60;60.40;;;;;;5016446;28;20026;-60
2020/12/23 02:34:11;;;;;;;66.95;39.65;;;17.80;60.20;;;;;;5016459;28;20022;-60
2020/12/23 02:36:37;;;;;;;71.78;39.45;;;17.90;60.10;;;;;;5016475;28;20430;-59
2020/12/23 02:39:03;;;;;;;69.30;38.85;;;17.90;60.00;;;;;;5016490;28;20061;-59
2020/12/23 02:41:29;;;;;;;68.38;39.88;;;17.90;59.70;;;;;;5016320;28;20120;-59
2020/12/23 02:43:54;;;;;;;65.63;39.10;;;17.90;59.80;;;;;;5016222;28;20121;-59
2020/12/23 02:46:20;;;;;;;66.43;37.55;;;17.90;59.90;;;;;;5016114;28;20033;-59
2020/12/23 02:48:46;;;;;;;68.70;39.45;;;17.90;59.90;;;;;;5015877;28;20091;-60
2020/12/23 02:51:11;;;;;;;70.43;38.97;;;17.90;59.90;;;;;;5016203;28;20056;-59
2020/12/23 02:53:37;;;;;;;66.60;38.20;;;17.80;60.00;;;;;;5016271;28;20036;-59
2020/12/23 02:56:03;;;;;;;63.38;36.92;;;17.70;60.20;;;;;;5016034;28;20022;-59
2020/12/23 02:58:29;;;;;;;63.63;38.05;;;17.60;60.40;;;;;;5016112;28;20030;-59
2020/12/23 03:00:55;;;;;;;62.83;34.22;;;17.60;60.50;;;;;;5015879;28;20038;-60
2020/12/23 03:03:20;;;;;;;68.25;36.22;;;17.60;60.60;;;;;;5015824;28;20041;-60
2020/12/23 03:05:46;;;;;;;58.03;33.20;;;17.50;60.60;;;;;;5015847;28;20025;-60
2020/12/23 03:08:11;;;;;;;61.67;34.60;;;17.50;60.80;;;;;;5015995;28;20422;-59
2020/12/23 03:10:37;;;;;;;63.83;35.33;;;17.50;60.90;;;;;;5015909;28;20421;-60
2020/12/23 03:13:03;;;;;;;63.55;35.03;;;17.50;60.90;;;;;;5015625;28;20421;-59
2020/12/23 03:15:28;;;;;;;58.58;33.17;;;17.40;61.00;;;;;;5015629;28;20034;-60
2020/12/23 03:17:54;;;;;;;59.25;34.97;;;17.40;61.10;;;;;;5015643;28;20439;-59
2020/12/23 03:20:19;;;;;;;60.38;33.10;;;17.30;61.10;;;;;;5015685;28;20050;-60
2020/12/23 03:22:45;;;;;;;63.00;33.95;;;17.40;61.30;;;;;;5015447;28;20060;-59
2020/12/23 03:25:10;;;;;;;57.10;32.40;;;17.40;61.40;;;;;;5015322;28;20105;-60
2020/12/23 03:27:36;;;;;;;54.38;32.60;;;17.30;61.30;;;;;;5015101;28;20385;-60
2020/12/23 03:30:03;;;;;;;53.72;30.77;;;17.30;61.40;;;;;;5015309;28;20036;-60
2020/12/23 03:32:29;;;;;;;54.60;29.92;;;17.30;61.50;;;;;;5015317;28;20034;-60
2020/12/23 03:34:54;;;;;;;48.92;28.85;;;17.30;61.80;;;;;;5015529;28;20359;-59
2020/12/23 03:37:20;;;;;;;52.45;31.00;;;17.20;61.40;;;;;;5015526;28;20026;-59
2020/12/23 03:39:45;;;;;;;54.85;28.63;;;17.30;61.70;;;;;;5015257;28;20386;-59
2020/12/23 03:42:11;;;;;;;48.38;29.65;;;17.30;61.70;;;;;;5015099;28;20040;-59
2020/12/23 03:44:37;;;;;;;51.55;28.02;;;17.30;61.60;;;;;;5015086;28;20025;-60
2020/12/23 03:47:02;;;;;;;52.08;29.95;;;17.30;61.80;;;;;;5015376;28;20034;-60
2020/12/23 03:49:28;;;;;;;49.45;29.25;;;17.40;61.30;;;;;;5015086;28;20026;-60
2020/12/23 03:51:54;;;;;;;52.28;28.65;;;17.40;60.90;;;;;;5014897;28;20109;-59
2020/12/23 03:54:19;;;;;;;49.13;28.83;;;17.40;61.00;;;;;;5014803;28;20068;-60
2020/12/23 03:56:45;;;;;;;46.92;28.05;;;17.30;61.10;;;;;;5014702;28;20533;-60
2020/12/23 03:59:10;;;;;;;47.55;27.85;;;17.30;61.20;;;;;;5014825;28;20076;-60
2020/12/23 04:01:36;;;;;;;45.85;26.65;;;17.30;61.50;;;;;;5014939;28;20383;-60
2020/12/23 04:04:02;;;;;;;50.80;27.63;;;17.20;61.50;;;;;;5015000;28;20041;-59
2020/12/23 04:06:27;;;;;;;47.83;27.35;;;17.20;61.40;;;;;;5014860;28;20126;-59
2020/12/23 04:08:53;;;;;;;50.65;29.90;;;17.20;61.60;;;;;;5014717;28;20433;-59
2020/12/23 04:11:18;;;;;;;44.75;26.13;;;17.20;61.50;;;;;;5014673;28;20073;-59
2020/12/23 04:13:44;;;;;;;45.17;25.65;;;17.20;61.50;;;;;;5014343;28;20038;-59
2020/12/23 04:16:09;;;;;;;46.60;24.95;;;17.20;61.90;;;;;;5014529;28;20030;-59
2020/12/23 04:18:35;;;;;;;44.95;24.60;;;17.20;61.50;;;;;;5014269;28;20029;-60
2020/12/23 04:21:01;;;;;;;44.70;24.95;;;17.20;61.50;;;;;;5014681;28;20459;-59
2020/12/23 04:23:26;;;;;;;46.63;26.05;;;17.10;61.50;;;;;;5014402;28;20041;-59
2020/12/23 04:25:52;;;;;;;43.50;24.45;;;17.20;61.80;;;;;;5014070;28;20026;-59
2020/12/23 04:28:17;;;;;;;42.25;23.35;;;17.10;61.70;;;;;;5014400;28;20104;-60
2020/12/23 04:30:45;;;;;;;41.05;23.90;;;17.10;61.90;;;;;;5014581;28;20371;-59
2020/12/23 04:33:11;;;;;;;40.95;23.85;;;17.10;61.90;;;;;;5014085;28;20409;-59
2020/12/23 04:35:37;;;;;;;41.45;24.15;;;17.10;61.90;;;;;;5014155;28;20022;-59
2020/12/23 04:38:03;;;;;;;41.20;24.27;;;17.10;62.10;;;;;;5014263;28;20037;-59
2020/12/23 04:40:28;;;;;;;41.83;24.77;;;17.00;62.40;;;;;;5014279;28;20029;-59
2020/12/23 04:42:54;;;;;;;46.80;23.83;;;17.00;62.30;;;;;;5013589;28;20066;-60
2020/12/23 04:45:20;;;;;;;39.83;22.67;;;17.00;62.40;;;;;;5014396;28;20048;-59
2020/12/23 04:47:48;;;;;;;35.60;22.05;;;17.00;62.40;;;;;;5014315;28;20036;-60
2020/12/23 04:50:19;;;;;;;34.78;21.38;;;17.00;62.30;;;;;;5013953;28;20076;-59
2020/12/23 04:52:45;;;;;;;35.28;20.85;;;17.10;62.30;;;;;;5014103;28;20037;-59
2020/12/23 04:55:11;;;;;;;39.78;21.27;;;17.10;61.90;;;;;;5013975;28;20117;-60
2020/12/23 04:57:40;;;;;;;35.63;22.20;;;17.00;61.90;;;;;;5014065;28;20176;-60
2020/12/23 05:00:07;;;;;;;38.08;20.75;;;17.00;61.70;;;;;;5013687;28;20379;-60
2020/12/23 05:02:32;;;;;;;36.58;20.63;;;17.00;62.10;;;;;;5013898;28;20043;-60
2020/12/23 05:04:58;;;;;;;39.50;20.38;;;16.90;62.20;;;;;;5014082;28;20025;-59
2020/12/23 05:07:24;;;;;;;34.20;19.98;;;17.00;62.40;;;;;;5013878;28;20029;-59
2020/12/23 05:09:51;;;;;;;32.60;19.33;;;17.00;62.40;;;;;;5013626;28;20030;-60
2020/12/23 05:12:20;;;;;;;34.10;20.60;;;17.10;62.30;;;;;;5013831;28;20034;-60
2020/12/23 05:14:46;;;;;;;35.70;20.95;;;17.10;62.10;;;;;;5014036;28;20032;-59
2020/12/23 05:17:15;;;;;;;33.30;19.50;;;17.20;61.90;;;;;;5014073;28;20386;-59
2020/12/23 05:19:40;;;;;;;35.58;21.38;;;17.30;61.60;;;;;;5013828;28;20548;-59
2020/12/23 05:22:09;;;;;;;33.78;18.70;;;17.40;61.40;;;;;;5013741;28;20042;-59
2020/12/23 05:24:38;;;;;;;31.40;19.02;;;17.50;61.00;;;;;;5013388;28;20030;-59
2020/12/23 05:27:05;;;;;;;37.60;18.70;;;17.60;60.80;;;;;;5013693;28;20045;-60
2020/12/23 05:29:31;;;;;;;33.85;18.63;;;17.70;60.70;;;;;;5013900;28;20088;-59
2020/12/23 05:31:56;;;;;;;38.50;19.30;;;17.80;60.20;;;;;;5013855;28;20029;-59
2020/12/23 05:34:22;;;;;;;34.35;18.60;;;17.90;60.10;;;;;;5013684;28;20104;-59
2020/12/23 05:36:50;;;;;;;34.25;19.30;;;17.90;59.90;;;;;;5013477;28;20018;-60
2020/12/23 05:39:15;;;;;;;32.28;17.10;;;18.50;59.00;;;;;;5013901;28;20049;-59
2020/12/23 05:41:41;;;;;;;31.15;18.10;;;18.20;59.50;;;;;;5013583;28;20458;-59
2020/12/23 05:44:15;;;;;;;27.55;16.77;;;18.50;58.90;;;;;;5013632;28;20458;-59
2020/12/23 05:46:41;;;;;;;31.33;18.20;;;18.60;58.40;;;;;;5013543;28;20026;-59
2020/12/23 05:49:10;;;;;;;29.08;15.88;;;18.70;58.20;;;;;;5013453;28;20037;-60
2020/12/23 05:51:37;;;;;;;30.02;17.75;;;18.80;58.10;;;;;;5013236;28;20492;-59
2020/12/23 05:54:05;;;;;;;28.08;17.40;;;18.80;57.90;;;;;;5014053;28;20034;-59
2020/12/23 05:56:36;;;;;;;28.40;16.83;;;18.90;57.80;;;;;;5017333;28;20034;-60
2020/12/23 05:59:02;;;;;;;25.30;15.02;;;18.90;57.80;;;;;;5017050;28;20454;-59
2020/12/23 06:01:34;;;;;;;31.15;17.05;;;18.90;57.80;;;;;;5016900;28;20030;-59
2020/12/23 06:04:07;;;;;;;30.20;17.35;;;19.00;57.70;;;;;;5016915;28;20050;-60
2020/12/23 06:06:34;;;;;;;27.38;16.02;;;19.00;57.50;;;;;;5016851;28;20421;-59
2020/12/23 06:09:06;;;;;;;28.02;15.88;;;19.10;57.50;;;;;;5016732;28;20481;-59
2020/12/23 06:11:34;;;;;;;25.48;14.80;;;19.10;57.50;;;;;;5017012;28;20032;-60
2020/12/23 06:14:03;;;;;;;24.77;13.65;;;19.10;57.50;;;;;;5016706;28;20030;-59
2020/12/23 06:16:30;;;;;;;25.52;14.85;;;19.20;57.50;;;;;;5016717;28;20025;-60
2020/12/23 06:19:30;;;;;;;26.33;15.23;;;19.10;57.50;;;;;;5015848;28;20143;-61
2020/12/23 06:21:57;;;;;;;26.05;14.02;;;19.10;57.70;;;;;;5000016;28;20041;-59
2020/12/23 06:24:24;;;;;;;27.30;15.35;;;19.10;57.60;;;;;;5016569;28;20028;-60
2020/12/23 06:26:54;;;;;;;26.45;14.65;;;19.10;57.70;;;;;;5016243;28;20433;-60
2020/12/23 06:29:26;;;;;;;26.38;14.57;;;19.00;57.70;;;;;;5016609;28;20510;-60
2020/12/23 06:32:02;;;;;;;23.75;13.77;;;19.00;57.80;;;;;;5016750;28;20026;-60
2020/12/23 06:34:33;;;;;;;24.92;15.38;;;19.00;57.90;;;;;;5016667;28;20026;-60
2020/12/23 06:36:59;;;;;;;23.98;13.43;;;18.90;58.00;;;;;;5016198;28;20022;-59
2020/12/23 06:39:27;;;;;;;22.45;13.93;;;18.90;58.10;;;;;;5016348;28;20034;-60
2020/12/23 06:41:55;;;;;;;20.60;12.30;;;18.90;58.40;;;;;;5016218;28;20034;-60
2020/12/23 06:44:20;;;;;;;20.55;12.73;;;18.90;58.30;;;;;;5016411;28;20109;-59
2020/12/23 06:46:58;;;;;;;23.20;13.60;;;19.10;57.90;;;;;;5016281;28;20513;-59
2020/12/23 06:49:35;;;;;;;21.15;12.70;;;19.20;57.60;;;;;;5015930;28;20030;-60
2020/12/23 06:52:01;;;;;;;18.85;11.60;;;19.20;57.40;;;;;;5015752;28;20040;-58
2020/12/23 06:54:47;;;;;;;23.30;12.18;;;19.10;57.70;;;;;;5016142;28;20017;-59
2020/12/23 06:57:35;;;;;;;24.20;13.30;;;19.00;58.30;;;;;;5016339;28;20022;-62
2020/12/23 07:00:08;;;;;;;26.30;13.77;;;18.90;59.00;;;;;;5015776;28;20546;-63
2020/12/23 07:02:41;;;;;;;24.92;14.00;;;18.90;59.60;;;;;;5014395;28;20504;-66
2020/12/23 07:05:07;;;;;;;26.58;14.13;;;18.90;59.20;;;;;;4995641;28;20036;-69
2020/12/23 07:07:35;;;;;;;26.35;12.40;;;18.80;59.20;;;;;;4978965;28;20140;-70
2020/12/23 07:10:31;;;;;;;20.02;12.55;;;18.80;59.40;;;;;;4996248;28;20109;-69
2020/12/23 07:12:59;;;;;;;20.75;12.52;;;18.70;59.60;;;;;;4991840;28;20073;-62
2020/12/23 07:15:36;;;;;;;22.73;12.52;;;18.60;59.80;;;;;;4996041;28;20019;-62
2020/12/23 07:18:15;;;;;;;22.67;13.50;;;18.60;60.00;;;;;;5003832;28;20037;-60
2020/12/23 07:20:45;;;;;;;19.63;11.85;;;18.50;60.10;;;;;;5014826;28;20121;-61
2020/12/23 07:23:21;;;;;;;22.73;12.30;;;18.50;60.20;;;;;;5015397;28;20042;-62
2020/12/23 07:25:48;;;;;;;20.63;12.00;;;18.40;60.30;;;;;;5015585;28;20072;-61
2020/12/23 07:28:17;;;;;;;22.05;11.75;;;18.40;60.40;;;;;;5015480;28;20060;-61
2020/12/23 07:30:43;;;;;;;20.70;11.82;;;18.40;60.50;;;;;;5015252;28;20413;-61
2020/12/23 07:33:12;;;;;;;20.10;11.10;;;18.30;60.60;;;;;;5015174;28;20033;-61
2020/12/23 07:35:39;;;;;;;17.73;10.57;;;18.30;60.70;;;;;;5015311;28;20030;-61
2020/12/23 07:38:06;;;;;;;18.52;10.27;;;18.30;60.80;;;;;;5015255;28;20061;-61
2020/12/23 07:40:32;;;;;;;19.48;11.70;;;18.20;60.90;;;;;;5015207;28;20041;-63
2020/12/23 07:42:58;;;;;;;25.75;11.70;;;18.30;60.90;;;;;;5015031;28;20045;-61
2020/12/23 07:45:28;;;;;;;23.63;10.52;;;18.40;60.90;;;;;;5014969;28;20026;-61
2020/12/23 07:47:59;;;;;;;20.08;10.30;;;18.30;60.90;;;;;;5015072;28;20026;-61
2020/12/23 07:50:26;;;;;;;;;;;18.30;61.00;;;;;;5015480;28;20028;-61
2020/12/23 07:52:52;;;;;;;18.42;10.35;;;18.30;61.20;;;;;;5014964;28;19905;-61
2020/12/23 07:55:20;;;;;;;23.45;11.05;;;18.30;60.90;;;;;;5015118;28;20025;-61
2020/12/23 07:57:47;;;;;;;20.60;10.70;;;18.30;60.70;;;;;;5014955;28;20477;-61
2020/12/23 08:00:13;;;;;;;17.80;10.20;;;18.20;60.80;;;;;;5014872;28;20025;-61
2020/12/23 08:02:40;;;;;;;18.30;9.93;;;18.20;60.90;;;;;;5014462;28;20069;-61
2020/12/23 08:05:08;;;;;;;17.27;9.43;;;18.30;60.90;;;;;;5014834;28;20375;-61
2020/12/23 08:07:38;;;;;;;20.00;10.00;;;18.20;60.70;;;;;;5014612;28;20037;-61
2020/12/23 08:10:22;;;;;;;17.10;8.63;;;18.30;60.50;;;;;;5014860;28;20113;-61
2020/12/23 08:12:54;;;;;;;19.98;9.43;;;18.50;60.30;;;;;;5014608;28;20038;-62
2020/12/23 08:15:21;;;;;;;15.45;9.43;;;18.50;60.20;;;;;;5014666;28;20052;-64
2020/12/23 08:17:47;;;;;;;17.73;10.27;;;18.50;60.00;;;;;;5013890;28;20029;-59
2020/12/23 08:20:15;;;;;;;18.05;9.95;;;18.60;59.70;;;;;;5014865;28;20082;-63
2020/12/23 08:22:45;;;;;;;17.92;9.73;;;18.70;59.20;;;;;;5014677;28;20037;-60
2020/12/23 08:25:18;;;;;;;19.10;9.95;;;18.80;59.00;;;;;;5014224;28;20387;-60
2020/12/23 08:27:46;;;;;;;45.55;26.65;;;18.80;58.10;;;;;;5014385;28;20037;-60
2020/12/23 08:30:16;;;;;;;69.70;42.20;;;18.80;57.20;;;;;;5008149;28;20362;-60
2020/12/23 08:32:53;;;;;;;104.80;56.55;;;18.80;56.70;;;;;;5013929;28;20076;-61
2020/12/23 08:35:20;;;;;;;157.65;88.18;;;18.70;56.10;;;;;;5014180;28;20022;-60
2020/12/23 08:37:46;;;;;;;155.90;88.00;;;18.60;56.40;;;;;;5013870;28;20022;-60
2020/12/23 08:40:14;;;;;;;177.77;95.18;;;18.60;55.20;;;;;;5011850;28;20041;-61
2020/12/23 08:42:50;;;;;;;158.48;86.88;;;18.70;54.40;;;;;;5013576;28;20044;-60
2020/12/23 08:45:24;;;;;;;102.10;59.17;;;18.80;53.80;;;;;;5014263;28;20032;-58
2020/12/23 08:47:51;;;;;;;95.85;52.75;;;18.90;53.50;;;;;;5014201;28;20036;-59
2020/12/23 08:50:19;;;;;;;80.70;46.72;;;18.90;53.90;;;;;;5013870;28;20055;-58
2020/12/23 08:52:46;;;;;;;66.60;40.53;;;18.70;54.80;;;;;;5013615;28;20040;-58
2020/12/23 08:55:26;;;;;;;60.45;34.13;;;18.60;55.30;;;;;;5013903;28;20030;-58
2020/12/23 08:58:06;;;;;;;52.25;29.05;;;18.50;55.30;;;;;;5014075;28;20109;-56
2020/12/23 09:00:34;;;;;;;45.80;26.43;;;18.40;56.10;;;;;;5013823;28;20034;-54
2020/12/23 09:03:01;;;;;;;39.67;23.95;;;18.40;56.30;;;;;;5013542;28;20641;-57
2020/12/23 09:05:30;;;;;;;32.00;21.23;;;18.30;55.90;;;;;;5013867;28;20444;-57
2020/12/23 09:08:11;;;;;;;30.83;20.57;;;18.20;55.40;;;;;;5013872;28;20041;-55
2020/12/23 09:10:37;;;;;;;;;;;18.10;55.10;;;;;;5014039;28;20037;-58
2020/12/23 09:13:12;;;;;;;43.83;24.00;;;18.00;54.90;;;;;;5013690;28;19909;-58
2020/12/23 09:15:39;;;;;;;44.97;22.08;;;18.10;55.60;;;;;;5014279;28;20034;-59
2020/12/23 09:18:12;;;;;;;31.52;20.08;;;18.20;55.60;;;;;;5012596;28;20084;-58
2020/12/23 09:20:40;;;;;;;29.27;17.73;;;18.20;55.50;;;;;;5014075;28;20054;-58
2020/12/23 09:23:07;;;;;;;31.13;17.35;;;18.30;55.30;;;;;;5013677;28;20038;-58
2020/12/23 09:25:37;;;;;;;27.75;18.23;;;18.40;55.40;;;;;;5013402;28;20034;-59
2020/12/23 09:28:08;;;;;;;29.27;15.52;;;18.50;55.40;;;;;;5012113;28;20053;-59
2020/12/23 09:30:42;;;;;;;22.45;15.35;;;18.50;55.40;;;;;;5015483;28;20054;-60
2020/12/23 09:33:14;;;;;;;28.80;15.52;;;18.70;55.40;;;;;;5015369;28;20038;-59
2020/12/23 09:35:42;;;;;;;24.00;14.52;;;18.90;55.00;;;;;;5015879;28;20129;-59
2020/12/23 09:38:24;;;;;;;22.05;13.63;;;19.10;54.70;;;;;;5015814;28;20034;-59
2020/12/23 09:40:55;;;;;;;21.83;13.88;;;19.20;54.40;;;;;;5016079;28;20022;-58
2020/12/23 09:43:23;;;;;;;26.00;13.30;;;19.20;54.40;;;;;;5017076;28;20534;-58
2020/12/23 09:45:51;;;;;;;20.77;12.80;;;19.10;54.60;;;;;;5017083;28;20080;-58
2020/12/23 09:48:18;;;;;;;19.52;12.57;;;19.00;54.90;;;;;;5017000;28;20114;-59
2020/12/23 09:50:46;;;;;;;20.17;12.13;;;19.00;55.30;;;;;;5017166;28;20557;-58
2020/12/23 09:53:12;;;;;;;20.40;13.07;;;18.90;55.60;;;;;;5017683;28;20030;-58
2020/12/23 09:55:42;;;;;;;18.02;11.90;;;18.90;55.80;;;;;;5017239;28;20441;-58
2020/12/23 09:58:08;;;;;;;18.33;12.48;;;18.80;55.90;;;;;;5017056;28;20026;-58
2020/12/23 10:00:34;;;;;;;21.73;12.05;;;18.80;56.10;;;;;;5017006;28;20065;-58
2020/12/23 10:03:00;;;;;;;19.88;12.60;;;18.70;56.30;;;;;;5016648;28;20080;-58
2020/12/23 10:05:26;;;;;;;19.98;12.73;;;18.70;56.40;;;;;;5017038;28;20026;-58
2020/12/23 10:07:52;;;;;;;17.15;11.18;;;18.70;56.50;;;;;;5016898;28;20034;-59
2020/12/23 10:10:18;;;;;;;19.65;12.30;;;18.70;56.70;;;;;;5016896;28;20026;-59
2020/12/23 10:12:43;;;;;;;16.27;11.48;;;18.60;56.80;;;;;;5016824;28;20140;-59
2020/12/23 10:15:09;;;;;;;20.45;11.38;;;18.60;57.00;;;;;;5016666;28;20073;-59
2020/12/23 10:17:35;;;;;;;19.20;10.52;;;18.60;57.10;;;;;;5016729;28;20030;-60
2020/12/23 10:20:02;;;;;;;17.92;11.07;;;18.60;57.30;;;;;;5017205;28;20054;-58
2020/12/23 10:22:27;;;;;;;17.17;10.25;;;18.50;57.40;;;;;;5016381;28;20041;-59
2020/12/23 10:24:53;;;;;;;20.48;10.75;;;18.50;57.50;;;;;;5016431;28;20029;-59
2020/12/23 10:27:18;;;;;;;16.48;10.52;;;18.70;57.40;;;;;;5016517;28;20542;-59
2020/12/23 10:29:44;;;;;;;18.58;10.60;;;18.80;57.10;;;;;;5016511;28;20033;-59
2020/12/23 10:32:10;;;;;;;15.90;10.68;;;18.80;57.10;;;;;;5016375;28;20037;-60
2020/12/23 10:34:35;;;;;;;18.10;9.77;;;18.80;57.00;;;;;;5017164;28;20048;-59
2020/12/23 10:37:01;;;;;;;16.65;10.60;;;18.90;56.90;;;;;;5016167;28;20057;-59
2020/12/23 10:39:27;;;;;;;16.95;10.45;;;18.80;57.20;;;;;;5014572;28;20029;-60
2020/12/23 10:41:54;;;;;;;20.17;10.30;;;18.70;57.50;;;;;;5014311;28;20025;-58
2020/12/23 10:44:21;;;;;;;17.27;10.30;;;18.50;57.80;;;;;;4999247;28;20463;-59
2020/12/23 10:46:51;;;;;;;16.80;10.00;;;18.50;58.20;;;;;;4996546;28;20053;-51
2020/12/23 10:49:17;;;;;;;18.48;8.18;;;18.40;59.20;;;;;;5014100;28;20029;-55
2020/12/23 10:51:47;;;;;;;14.27;8.30;;;18.20;59.00;;;;;;5016290;28;20033;-60
2020/12/23 10:54:13;;;;;;;13.45;8.45;;;18.00;59.50;;;;;;5016209;28;20065;-59
2020/12/23 10:56:39;;;;;;;17.15;7.93;;;17.90;59.90;;;;;;5016481;28;20476;-61
2020/12/23 10:59:04;;;;;;;21.95;8.20;;;18.00;60.00;;;;;;5016004;28;20037;-60
2020/12/23 11:01:30;;;;;;;12.65;7.57;;;18.10;60.40;;;;;;5015914;28;20061;-59
2020/12/23 11:03:55;;;;;;;13.13;8.10;;;18.20;60.40;;;;;;5015875;28;20125;-59
2020/12/23 11:06:21;;;;;;;18.63;9.02;;;18.30;60.20;;;;;;5016087;28;20481;-59
2020/12/23 11:08:47;;;;;;;15.75;8.07;;;18.30;60.20;;;;;;5015846;28;20152;-59
2020/12/23 11:11:14;;;;;;;20.38;8.02;;;18.50;60.00;;;;;;5015780;28;20030;-59
2020/12/23 11:13:40;;;;;;;13.68;8.15;;;18.50;59.80;;;;;;5015795;28;20136;-60
2020/12/23 11:16:06;;;;;;;17.08;9.13;;;18.60;59.70;;;;;;5015640;28;20048;-60
2020/12/23 11:18:32;;;;;;;14.77;8.32;;;18.70;59.60;;;;;;5015446;28;20514;-60
2020/12/23 11:20:57;;;;;;;13.73;8.43;;;18.80;59.40;;;;;;5015673;28;20430;-59
2020/12/23 11:23:24;;;;;;;19.00;8.43;;;19.00;59.30;;;;;;5015122;28;20041;-59
2020/12/23 11:25:51;;;;;;;15.63;8.10;;;19.10;58.80;;;;;;5015004;28;20037;-59
2020/12/23 11:28:16;;;;;;;14.60;9.05;;;19.30;58.40;;;;;;5015203;28;20034;-61
2020/12/23 11:30:42;;;;;;;44.28;23.75;;;19.40;58.40;;;;;;5015400;28;20126;-60
2020/12/23 11:33:07;;;;;;;72.80;35.28;;;19.40;58.50;;;;;;5015531;28;20040;-59
2020/12/23 11:35:33;;;;;;;74.60;38.67;;;19.30;58.60;;;;;;5015041;28;20033;-60
2020/12/23 11:37:59;;;;;;;90.30;52.28;;;19.30;58.90;;;;;;5015053;28;20026;-60
2020/12/23 11:40:24;;;;;;;108.57;61.10;;;19.20;59.00;;;;;;5015161;28;20030;-60
2020/12/23 11:42:50;;;;;;;122.63;70.30;;;19.20;58.90;;;;;;5008780;28;20038;-60
2020/12/23 11:45:16;;;;;;;132.60;73.70;;;19.20;59.60;;;;;;5000131;28;20478;-60
2020/12/23 11:47:41;;;;;;;129.55;71.18;;;19.20;59.00;;;;;;4995218;28;20062;-60
2020/12/23 11:50:07;;;;;;;127.13;69.22;;;19.20;59.00;;;;;;4995743;28;20374;-60
2020/12/23 11:52:32;;;;;;;120.40;67.22;;;19.10;59.00;;;;;;4994577;28;20504;-60
2020/12/23 11:54:58;;;;;;;110.70;63.83;;;19.10;59.00;;;;;;4995508;28;20032;-59
2020/12/23 11:57:23;;;;;;;102.53;59.92;;;19.10;59.10;;;;;;4995277;28;20026;-61
2020/12/23 11:59:49;;;;;;;103.68;57.70;;;19.00;59.10;;;;;;4995006;28;20026;-60
2020/12/23 12:02:15;;;;;;;100.90;56.67;;;19.00;59.30;;;;;;4994984;28;20467;-60
2020/12/23 12:04:40;;;;;;;98.90;55.25;;;19.00;59.30;;;;;;4995069;28;20026;-60
2020/12/23 12:07:06;;;;;;;92.03;53.25;;;18.90;59.20;;;;;;4995158;28;20126;-59
2020/12/23 12:09:32;;;;;;;90.45;51.08;;;18.90;59.20;;;;;;4994951;28;20030;-59
2020/12/23 12:11:58;;;;;;;82.82;49.53;;;18.80;59.30;;;;;;4998757;28;20037;-60
2020/12/23 12:14:24;;;;;;;79.45;47.50;;;18.80;59.30;;;;;;5014494;28;20425;-60
2020/12/23 12:16:50;;;;;;;83.68;47.95;;;18.80;59.40;;;;;;5014448;28;20034;-59
2020/12/23 12:19:16;;;;;;;87.22;47.15;;;19.00;58.90;;;;;;5014379;28;20161;-58
2020/12/23 12:21:41;;;;;;;79.43;46.63;;;19.10;58.80;;;;;;5014567;28;20026;-56
2020/12/23 12:24:07;;;;;;;76.35;47.22;;;19.20;59.30;;;;;;5014476;28;20065;-56
2020/12/23 12:26:33;;;;;;;73.45;43.50;;;19.20;59.70;;;;;;5014240;28;20120;-56
2020/12/23 12:29:00;;;;;;;77.57;45.05;;;19.10;60.40;;;;;;5022452;28;20041;-58